createdAt,value
2022-10-10T00:01:16.032Z,8.90
2022-10-10T00:03:33.083Z,6.05
2022-10-10T00:05:50.036Z,8.68
2022-10-10T00:08:06.976Z,10.20
2022-10-10T00:10:23.950Z,7.30
2022-10-10T00:12:40.876Z,6.47
2022-10-10T00:14:57.779Z,9.80
2022-10-10T00:17:14.764Z,6.68
2022-10-10T00:19:31.702Z,9.95
2022-10-10T00:21:49.716Z,8.00
2022-10-10T00:24:06.634Z,7.90
2022-10-10T00:26:23.575Z,5.93
2022-10-10T00:28:40.515Z,8.18
2022-10-10T00:30:57.489Z,8.55
2022-10-10T00:33:14.400Z,9.52
2022-10-10T00:35:31.372Z,8.82
2022-10-10T00:37:48.279Z,8.35
2022-10-10T00:40:05.199Z,8.82
2022-10-10T00:42:22.152Z,5.55
2022-10-10T00:44:39.080Z,8.50
2022-10-10T00:46:56.035Z,6.47
2022-10-10T00:49:12.967Z,7.65
2022-10-10T00:51:29.859Z,8.75
2022-10-10T00:53:46.839Z,7.40
2022-10-10T00:56:03.647Z,6.22
2022-10-10T00:58:20.571Z,6.53
2022-10-10T01:00:37.556Z,5.30
2022-10-10T01:02:54.515Z,6.55
2022-10-10T01:05:11.380Z,8.88
2022-10-10T01:07:28.280Z,6.28
2022-10-10T01:09:45.229Z,5.80
2022-10-10T01:12:02.098Z,6.35
2022-10-10T01:14:19.032Z,8.95
2022-10-10T01:16:35.954Z,5.97
2022-10-10T01:18:52.976Z,5.70
2022-10-10T01:21:09.944Z,7.63
2022-10-10T01:23:26.809Z,6.00
2022-10-10T01:25:43.672Z,6.10
2022-10-10T01:28:00.593Z,8.30
2022-10-10T01:30:17.528Z,11.40
2022-10-10T01:32:34.409Z,7.13
2022-10-10T01:34:51.341Z,7.85
2022-10-10T01:37:08.254Z,5.78
2022-10-10T01:39:25.163Z,6.55
2022-10-10T01:41:42.079Z,5.72
2022-10-10T01:43:58.963Z,7.00
2022-10-10T01:46:15.934Z,6.97
2022-10-10T01:48:32.814Z,5.50
2022-10-10T01:50:49.811Z,5.82
2022-10-10T01:53:06.755Z,5.63
2022-10-10T01:55:23.715Z,7.93
2022-10-10T01:57:40.618Z,6.45
2022-10-10T01:59:57.511Z,5.85
2022-10-10T02:02:14.416Z,7.57
2022-10-10T02:04:31.363Z,5.70
2022-10-10T02:06:48.286Z,4.95
2022-10-10T02:09:05.243Z,5.50
2022-10-10T02:11:22.176Z,5.85
2022-10-10T02:13:39.079Z,5.45
2022-10-10T02:15:55.989Z,6.20
2022-10-10T02:18:12.843Z,8.18
2022-10-10T02:20:29.702Z,6.05
2022-10-10T02:22:48.946Z,6.38
2022-10-10T02:25:06.174Z,6.10
2022-10-10T02:27:23.013Z,7.72
2022-10-10T02:29:39.853Z,5.18
2022-10-10T02:31:56.675Z,6.47
2022-10-10T02:34:13.570Z,8.52
2022-10-10T02:36:30.380Z,5.43
2022-10-10T02:38:47.193Z,8.30
2022-10-10T02:41:04.039Z,5.95
2022-10-10T02:43:20.937Z,4.97
2022-10-10T02:45:37.785Z,6.28
2022-10-10T02:47:54.823Z,6.45
2022-10-10T02:50:11.670Z,5.38
2022-10-10T02:52:28.550Z,5.55
2022-10-10T02:54:45.423Z,7.25
2022-10-10T02:57:02.211Z,7.43
2022-10-10T02:59:19.073Z,7.15
2022-10-10T03:01:35.943Z,5.45
2022-10-10T03:03:52.781Z,5.85
2022-10-10T03:06:09.649Z,6.45
2022-10-10T03:08:26.532Z,7.55
2022-10-10T03:10:43.401Z,6.88
2022-10-10T03:13:00.415Z,6.68
2022-10-10T03:15:17.324Z,6.25
2022-10-10T03:17:34.233Z,6.75
2022-10-10T03:19:51.057Z,10.13
2022-10-10T03:22:07.906Z,4.72
2022-10-10T03:24:24.719Z,8.63
2022-10-10T03:26:41.567Z,6.05
2022-10-10T03:28:58.441Z,6.05
2022-10-10T03:31:15.283Z,6.00
2022-10-10T03:33:32.193Z,5.13
2022-10-10T03:35:49.036Z,7.22
2022-10-10T03:38:05.940Z,4.80
2022-10-10T03:40:22.788Z,5.57
2022-10-10T03:42:39.654Z,4.75
2022-10-10T03:44:56.520Z,6.55
2022-10-10T03:47:13.346Z,5.75
2022-10-10T03:49:30.206Z,6.30
2022-10-10T03:51:47.088Z,9.10
2022-10-10T03:54:03.921Z,6.18
2022-10-10T03:56:20.820Z,7.05
2022-10-10T03:58:37.659Z,7.88
2022-10-10T04:00:54.530Z,6.15
2022-10-10T04:03:11.427Z,4.97
2022-10-10T04:05:28.247Z,8.35
2022-10-10T04:07:45.100Z,5.72
2022-10-10T04:10:01.904Z,5.45
2022-10-10T04:12:18.767Z,5.53
2022-10-10T04:14:35.594Z,4.82
2022-10-10T04:16:52.540Z,7.90
2022-10-10T04:19:09.429Z,5.20
2022-10-10T04:21:26.261Z,6.88
2022-10-10T04:23:43.151Z,5.55
2022-10-10T04:26:00.035Z,5.15
2022-10-10T04:28:17.005Z,5.07
2022-10-10T04:30:33.868Z,6.22
2022-10-10T04:32:51.035Z,6.78
2022-10-10T04:35:08.003Z,4.95
2022-10-10T04:37:24.828Z,6.40
2022-10-10T04:39:41.686Z,5.65
2022-10-10T04:41:58.579Z,8.77
2022-10-10T04:44:15.425Z,9.13
2022-10-10T04:46:32.237Z,4.60
2022-10-10T04:48:49.067Z,7.70
2022-10-10T04:51:05.943Z,7.07
2022-10-10T04:53:22.819Z,11.23
2022-10-10T04:55:39.653Z,6.63
2022-10-10T04:57:56.548Z,8.90
2022-10-10T05:00:13.445Z,7.22
2022-10-10T05:02:30.258Z,4.90
2022-10-10T05:04:47.130Z,8.88
2022-10-10T05:07:03.966Z,8.57
2022-10-10T05:09:20.811Z,4.88
2022-10-10T05:11:37.624Z,8.63
2022-10-10T05:13:54.489Z,5.72
2022-10-10T05:16:11.324Z,6.40
2022-10-10T05:18:28.197Z,5.97
2022-10-10T05:20:45.046Z,7.28
2022-10-10T05:23:01.929Z,5.55
2022-10-10T05:25:18.759Z,7.00
2022-10-10T05:27:35.616Z,6.63
2022-10-10T05:29:52.457Z,7.38
2022-10-10T05:32:10.520Z,8.75
2022-10-10T05:34:27.607Z,5.18
2022-10-10T05:36:44.515Z,6.30
2022-10-10T05:39:01.424Z,7.05
2022-10-10T05:41:18.290Z,7.28
2022-10-10T05:43:35.119Z,8.68
2022-10-10T05:45:51.983Z,7.30
2022-10-10T05:48:08.854Z,10.30
2022-10-10T05:50:25.737Z,6.50
2022-10-10T05:52:42.600Z,10.57
2022-10-10T05:54:59.614Z,7.85
2022-10-10T05:57:16.688Z,7.60
2022-10-10T05:59:33.627Z,7.40
2022-10-10T06:01:50.460Z,7.82
2022-10-10T06:04:07.354Z,6.95
2022-10-10T06:06:24.191Z,8.02
2022-10-10T06:08:41.076Z,13.90
2022-10-10T06:10:57.907Z,11.82
2022-10-10T06:13:14.771Z,16.15
2022-10-10T06:15:31.645Z,34.70
2022-10-10T06:17:48.498Z,19.58
2022-10-10T06:20:05.523Z,17.17
2022-10-10T06:22:22.390Z,19.83
2022-10-10T06:24:39.215Z,15.43
2022-10-10T06:26:56.072Z,16.60
2022-10-10T06:29:12.879Z,10.73
2022-10-10T06:31:29.743Z,8.60
2022-10-10T06:33:46.549Z,7.15
2022-10-10T06:36:03.416Z,7.75
2022-10-10T06:38:20.267Z,7.20
2022-10-10T06:40:37.142Z,8.43
2022-10-10T06:42:54.433Z,8.38
2022-10-10T06:45:11.469Z,10.98
2022-10-10T06:47:28.294Z,8.57
2022-10-10T06:49:45.543Z,7.95
2022-10-10T06:52:02.441Z,9.45
2022-10-10T06:54:19.341Z,9.18
2022-10-10T06:56:36.167Z,8.88
2022-10-10T06:58:53.086Z,7.78
2022-10-10T07:01:10.141Z,9.50
2022-10-10T07:03:27.006Z,8.88
2022-10-10T07:05:44.138Z,10.13
2022-10-10T07:08:00.984Z,12.00
2022-10-10T07:10:17.827Z,8.88
2022-10-10T07:12:42.058Z,9.27
2022-10-10T07:15:01.194Z,9.25
2022-10-10T07:17:18.096Z,10.00
2022-10-10T07:19:34.925Z,7.30
2022-10-10T07:21:51.844Z,10.60
2022-10-10T07:24:08.866Z,13.45
2022-10-10T07:26:25.837Z,13.32
2022-10-10T07:28:42.669Z,7.38
2022-10-10T07:30:59.622Z,8.73
2022-10-10T07:33:16.604Z,9.65
2022-10-10T07:35:33.498Z,10.18
2022-10-10T07:37:50.391Z,12.90
2022-10-10T07:40:07.256Z,12.90
2022-10-10T07:42:24.103Z,13.73
2022-10-10T07:44:40.937Z,12.30
2022-10-10T07:46:57.831Z,10.10
2022-10-10T07:49:14.640Z,9.15
2022-10-10T07:51:31.530Z,11.43
2022-10-10T07:53:48.450Z,9.43
2022-10-10T07:56:05.350Z,9.45
2022-10-10T07:58:22.181Z,10.93
2022-10-10T08:00:39.062Z,9.02
2022-10-10T08:02:55.942Z,11.52
2022-10-10T08:05:12.843Z,11.55
2022-10-10T08:07:29.688Z,9.25
2022-10-10T08:09:46.549Z,9.50
2022-10-10T08:12:03.377Z,8.60
2022-10-10T08:14:20.363Z,15.13
2022-10-10T08:16:37.229Z,11.20
2022-10-10T08:18:54.083Z,12.15
2022-10-10T08:21:10.947Z,9.52
2022-10-10T08:23:27.854Z,9.52
2022-10-10T08:25:44.685Z,10.57
2022-10-10T08:28:01.507Z,11.50
2022-10-10T08:30:18.372Z,11.57
2022-10-10T08:32:35.237Z,11.65
2022-10-10T08:34:52.075Z,14.63
2022-10-10T08:37:08.906Z,10.85
2022-10-10T08:39:25.803Z,12.35
2022-10-10T08:41:42.657Z,9.70
2022-10-10T08:43:59.527Z,9.40
2022-10-10T08:46:16.355Z,12.23
2022-10-10T08:48:33.234Z,9.88
2022-10-10T08:50:50.067Z,12.07
2022-10-10T08:53:06.941Z,11.40
2022-10-10T08:55:23.790Z,9.10
2022-10-10T08:57:40.689Z,8.00
2022-10-10T08:59:57.521Z,6.68
2022-10-10T09:02:18.526Z,9.75
2022-10-10T09:04:37.057Z,7.88
2022-10-10T09:06:53.924Z,10.65
2022-10-10T09:09:10.771Z,6.70
2022-10-10T09:11:27.670Z,7.15
2022-10-10T09:13:44.560Z,5.68
2022-10-10T09:16:01.443Z,8.63
2022-10-10T09:18:18.267Z,8.20
2022-10-10T09:20:35.139Z,10.65
2022-10-10T09:22:51.946Z,8.57
2022-10-10T09:25:08.836Z,6.88
2022-10-10T09:27:25.721Z,11.10
2022-10-10T09:29:42.581Z,9.73
2022-10-10T09:31:59.433Z,7.43
2022-10-10T09:34:16.329Z,7.00
2022-10-10T09:36:33.204Z,6.35
2022-10-10T09:38:50.049Z,6.18
2022-10-10T09:41:06.975Z,6.45
2022-10-10T09:43:23.859Z,7.57
2022-10-10T09:45:40.711Z,8.63
2022-10-10T09:47:57.543Z,7.22
2022-10-10T09:50:14.398Z,7.10
2022-10-10T09:52:31.275Z,7.20
2022-10-10T09:54:48.125Z,5.65
2022-10-10T09:57:04.988Z,7.13
2022-10-10T09:59:21.895Z,9.82
2022-10-10T10:01:38.837Z,8.00
2022-10-10T10:04:02.540Z,7.03
2022-10-10T10:06:28.170Z,8.18
2022-10-10T10:08:49.795Z,6.97
2022-10-10T10:11:06.806Z,4.43
2022-10-10T10:13:23.650Z,8.02
2022-10-10T10:15:40.548Z,9.02
2022-10-10T10:17:57.456Z,6.78
2022-10-10T10:20:14.355Z,5.43
2022-10-10T10:22:31.175Z,8.80
2022-10-10T10:24:48.000Z,10.20
2022-10-10T10:27:04.882Z,6.07
2022-10-10T10:29:21.771Z,6.28
2022-10-10T10:31:42.671Z,11.98
2022-10-10T10:34:01.494Z,6.70
2022-10-10T10:36:18.332Z,11.10
2022-10-10T10:38:35.284Z,6.80
2022-10-10T10:40:52.128Z,9.45
2022-10-10T10:43:09.067Z,9.65
2022-10-10T10:45:25.937Z,10.23
2022-10-10T10:47:42.783Z,8.50
2022-10-10T10:49:59.671Z,8.93
2022-10-10T10:52:16.492Z,10.82
2022-10-10T10:54:35.289Z,10.23
2022-10-10T10:56:58.867Z,8.18
2022-10-10T10:59:41.692Z,6.13
2022-10-10T11:02:00.745Z,9.35
2022-10-10T11:05:17.849Z,9.80
2022-10-10T11:07:17.440Z,8.65
2022-10-10T11:09:48.984Z,8.00
2022-10-10T11:12:06.763Z,10.10
2022-10-10T11:14:23.637Z,13.10
2022-10-10T11:16:48.891Z,9.88
2022-10-10T11:19:06.290Z,11.60
2022-10-10T11:21:23.128Z,7.40
2022-10-10T11:23:39.989Z,8.82
2022-10-10T11:25:56.825Z,22.38
2022-10-10T11:28:13.722Z,9.27
2022-10-10T11:30:30.627Z,11.10
2022-10-10T11:32:47.496Z,12.65
2022-10-10T11:35:04.399Z,11.35
2022-10-10T11:37:21.266Z,12.43
2022-10-10T11:39:38.101Z,12.85
2022-10-10T11:41:54.978Z,10.32
2022-10-10T11:44:11.855Z,12.23
2022-10-10T11:46:28.654Z,12.50
2022-10-10T11:48:45.831Z,12.40
2022-10-10T11:51:02.715Z,11.10
2022-10-10T11:53:19.614Z,11.32
2022-10-10T11:55:36.449Z,10.68
2022-10-10T11:57:53.332Z,11.43
2022-10-10T12:00:10.220Z,13.85
2022-10-10T12:02:28.025Z,11.93
2022-10-10T12:04:45.110Z,14.60
2022-10-10T12:07:02.019Z,13.52
2022-10-10T12:09:18.900Z,13.90
2022-10-10T12:11:35.814Z,14.23
2022-10-10T12:13:52.714Z,12.77
2022-10-10T12:16:09.530Z,15.68
2022-10-10T12:18:26.372Z,16.10
2022-10-10T12:20:43.223Z,13.05
2022-10-10T12:23:00.060Z,15.98
2022-10-10T12:25:16.967Z,13.75
2022-10-10T12:27:33.809Z,17.30
2022-10-10T12:29:51.462Z,13.00
2022-10-10T12:32:08.393Z,15.65
2022-10-10T12:34:25.272Z,15.73
2022-10-10T12:36:42.109Z,19.45
2022-10-10T12:39:00.810Z,17.35
2022-10-10T12:41:17.753Z,10.98
2022-10-10T12:43:34.581Z,13.02
2022-10-10T12:45:51.408Z,17.17
2022-10-10T12:48:08.293Z,13.23
2022-10-10T12:50:25.133Z,12.88
2022-10-10T12:52:42.030Z,13.27
2022-10-10T12:55:00.479Z,19.25
2022-10-10T12:57:20.127Z,15.80
2022-10-10T12:59:36.978Z,15.25
2022-10-10T13:01:53.953Z,12.07
2022-10-10T13:04:10.823Z,13.80
2022-10-10T13:06:27.691Z,12.35
2022-10-10T13:08:44.615Z,15.57
2022-10-10T13:11:01.770Z,12.25
2022-10-10T13:13:18.756Z,13.82
2022-10-10T13:15:35.652Z,12.02
2022-10-10T13:17:52.482Z,12.50
2022-10-10T13:20:09.319Z,9.18
2022-10-10T13:22:26.171Z,12.32
2022-10-10T13:24:43.036Z,13.43
2022-10-10T13:26:59.898Z,9.18
2022-10-10T13:29:18.336Z,15.70
2022-10-10T13:31:35.171Z,12.30
2022-10-10T13:33:52.068Z,11.43
2022-10-10T13:36:08.937Z,10.13
2022-10-10T13:38:25.762Z,13.90
2022-10-10T13:40:42.601Z,9.43
2022-10-10T13:42:59.460Z,16.98
2022-10-10T13:45:16.320Z,11.93
2022-10-10T13:47:33.154Z,18.10
2022-10-10T13:49:50.010Z,13.60
2022-10-10T13:52:06.894Z,9.32
2022-10-10T13:54:23.728Z,13.55
2022-10-10T13:56:41.530Z,10.73
2022-10-10T13:58:58.558Z,11.90
2022-10-10T14:01:15.482Z,16.38
2022-10-10T14:03:32.414Z,17.42
2022-10-10T14:05:49.283Z,14.95
2022-10-10T14:08:06.202Z,14.65
2022-10-10T14:10:23.024Z,12.88
2022-10-10T14:12:39.888Z,18.88
2022-10-10T14:14:56.739Z,15.43
2022-10-10T14:17:13.595Z,12.88
2022-10-10T14:19:30.466Z,16.30
2022-10-10T14:21:47.293Z,13.65
2022-10-10T14:24:04.183Z,16.65
2022-10-10T14:26:21.013Z,12.00
2022-10-10T14:28:38.120Z,9.52
2022-10-10T14:30:55.139Z,16.58
2022-10-10T14:33:12.019Z,14.68
2022-10-10T14:35:29.103Z,13.95
2022-10-10T14:37:46.055Z,16.48
2022-10-10T14:40:02.999Z,11.10
2022-10-10T14:42:19.886Z,14.32
2022-10-10T14:44:36.774Z,16.95
2022-10-10T14:46:53.653Z,13.90
2022-10-10T14:49:13.109Z,19.25
2022-10-10T14:51:34.518Z,13.95
2022-10-10T14:54:11.772Z,16.60
2022-10-10T14:57:09.082Z,18.75
2022-10-10T14:59:05.929Z,17.60
2022-10-10T15:01:22.765Z,16.08
2022-10-10T15:03:39.627Z,13.52
2022-10-10T15:05:56.480Z,13.52
2022-10-10T15:08:13.319Z,15.55
2022-10-10T15:10:34.578Z,16.70
2022-10-10T15:12:52.110Z,11.73
2022-10-10T15:15:08.932Z,19.05
2022-10-10T15:17:25.795Z,15.40
2022-10-10T15:19:42.626Z,14.10
2022-10-10T15:21:59.472Z,16.38
2022-10-10T15:24:16.337Z,12.82
2022-10-10T15:26:33.353Z,14.73
2022-10-10T15:28:50.290Z,16.08
2022-10-10T15:31:07.193Z,17.95
2022-10-10T15:33:24.027Z,18.42
2022-10-10T15:36:04.353Z,11.20
2022-10-10T15:38:17.709Z,14.00
2022-10-10T15:40:34.546Z,15.43
2022-10-10T15:42:51.407Z,11.45
2022-10-10T15:45:08.280Z,14.05
2022-10-10T15:47:25.337Z,18.90
2022-10-10T15:49:42.224Z,14.63
2022-10-10T15:51:59.096Z,18.10
2022-10-10T15:54:15.977Z,19.63
2022-10-10T15:56:32.825Z,15.38
2022-10-10T15:58:49.672Z,20.15
2022-10-10T16:01:06.863Z,27.15
2022-10-10T16:03:23.837Z,19.00
2022-10-10T16:05:40.688Z,14.57
2022-10-10T16:07:57.539Z,19.85
2022-10-10T16:10:14.418Z,20.10
2022-10-10T16:12:31.286Z,20.67
2022-10-10T16:14:48.157Z,16.83
2022-10-10T16:17:05.004Z,14.23
2022-10-10T16:19:21.933Z,23.00
2022-10-10T16:21:38.759Z,16.92
2022-10-10T16:23:58.075Z,19.50
2022-10-10T16:26:15.367Z,21.45
2022-10-10T16:28:32.330Z,19.70
2022-10-10T16:30:49.213Z,17.20
2022-10-10T16:33:06.071Z,19.55
2022-10-10T16:35:22.922Z,17.70
2022-10-10T16:37:39.785Z,20.20
2022-10-10T16:39:56.604Z,22.45
2022-10-10T16:42:13.502Z,20.60
2022-10-10T16:44:30.351Z,17.50
2022-10-10T16:46:47.254Z,15.45
2022-10-10T16:49:04.220Z,17.73
2022-10-10T16:51:21.078Z,15.32
2022-10-10T16:53:37.931Z,20.75
2022-10-10T16:55:54.794Z,15.48
2022-10-10T16:58:11.655Z,19.10
2022-10-10T17:00:28.518Z,17.05
2022-10-10T17:02:45.365Z,16.65
2022-10-10T17:05:02.273Z,15.23
2022-10-10T17:07:19.137Z,15.63
2022-10-10T17:09:35.998Z,14.63
2022-10-10T17:11:52.842Z,11.82
2022-10-10T17:14:09.932Z,13.88
2022-10-10T17:19:03.717Z,14.55
2022-10-10T17:21:20.615Z,17.95
2022-10-10T17:23:37.450Z,15.07
2022-10-10T17:25:54.267Z,15.35
2022-10-10T17:28:11.194Z,15.85
2022-10-10T17:30:28.030Z,16.00
2022-10-10T17:32:44.839Z,13.25
2022-10-10T17:35:01.728Z,16.77
2022-10-10T17:37:18.557Z,17.70
2022-10-10T17:39:35.409Z,17.73
2022-10-10T17:41:52.326Z,18.02
2022-10-10T17:44:09.224Z,20.23
2022-10-10T17:46:35.398Z,17.10
2022-10-10T17:48:53.363Z,14.63
2022-10-10T17:51:10.232Z,15.75
2022-10-10T17:53:27.115Z,17.58
2022-10-10T17:55:43.967Z,16.70
2022-10-10T17:58:00.855Z,19.58
2022-10-10T18:00:17.782Z,19.20
2022-10-10T18:02:34.650Z,20.67
2022-10-10T18:04:51.567Z,20.45
2022-10-10T18:07:08.449Z,19.75
2022-10-10T18:09:25.285Z,15.77
2022-10-10T18:11:42.364Z,15.10
2022-10-10T18:13:59.263Z,13.75
2022-10-10T18:16:16.119Z,18.70
2022-10-10T18:18:32.952Z,18.65
2022-10-10T18:20:49.823Z,14.73
2022-10-10T18:23:06.692Z,20.83
2022-10-10T18:25:25.192Z,18.90
2022-10-10T18:27:42.258Z,20.27
2022-10-10T18:29:59.076Z,15.20
2022-10-10T18:32:15.935Z,17.83
2022-10-10T18:34:32.841Z,16.00
2022-10-10T18:36:49.666Z,14.32
2022-10-10T18:39:06.535Z,18.88
2022-10-10T18:41:23.342Z,19.00
2022-10-10T18:43:40.219Z,17.02
2022-10-10T18:45:57.104Z,18.05
2022-10-10T18:48:13.973Z,15.45
2022-10-10T18:50:30.788Z,18.95
2022-10-10T18:52:47.634Z,15.63
2022-10-10T18:55:04.509Z,13.30
2022-10-10T18:57:21.350Z,14.02
2022-10-10T18:59:38.216Z,17.08
2022-10-10T19:01:55.108Z,12.73
2022-10-10T19:04:12.001Z,14.30
2022-10-10T19:06:28.806Z,13.27
2022-10-10T19:08:45.694Z,12.10
2022-10-10T19:11:02.983Z,11.85
2022-10-10T19:13:20.163Z,13.75
2022-10-10T19:15:37.004Z,12.25
2022-10-10T19:17:53.876Z,15.30
2022-10-10T19:20:10.742Z,12.30
2022-10-10T19:22:27.631Z,11.63
2022-10-10T19:24:44.560Z,12.15
2022-10-10T19:27:01.480Z,17.00
2022-10-10T19:29:18.350Z,11.38
2022-10-10T19:31:35.181Z,11.35
2022-10-10T19:33:52.104Z,12.63
2022-10-10T19:36:08.977Z,8.50
2022-10-10T19:38:25.812Z,14.90
2022-10-10T19:40:42.833Z,8.57
2022-10-10T19:43:00.349Z,11.40
2022-10-10T19:45:17.422Z,9.85
2022-10-10T19:47:34.274Z,10.18
2022-10-10T19:49:51.092Z,14.70
2022-10-10T19:52:07.963Z,10.32
2022-10-10T19:54:24.837Z,9.98
2022-10-10T19:56:41.654Z,10.07
2022-10-10T19:58:58.542Z,10.85
2022-10-10T20:01:15.483Z,10.48
2022-10-10T20:03:32.380Z,9.32
2022-10-10T20:05:49.250Z,10.18
2022-10-10T20:08:06.137Z,12.20
2022-10-10T20:10:23.019Z,11.07
2022-10-10T20:12:40.198Z,9.32
2022-10-10T20:14:57.201Z,11.60
2022-10-10T20:17:14.041Z,12.50
2022-10-10T20:19:31.138Z,13.45
2022-10-10T20:21:48.058Z,11.93
2022-10-10T20:24:04.977Z,10.93
2022-10-10T20:26:21.938Z,9.93
2022-10-10T20:28:38.899Z,11.07
2022-10-10T20:30:55.882Z,16.50
2022-10-10T20:33:15.338Z,8.00
2022-10-10T20:35:32.237Z,12.20
2022-10-10T20:37:49.248Z,10.02
2022-10-10T20:40:06.270Z,9.73
2022-10-10T20:42:23.218Z,10.38
2022-10-10T20:44:40.083Z,13.02
2022-10-10T20:46:57.040Z,10.88
2022-10-10T20:49:13.966Z,14.18
2022-10-10T20:51:32.133Z,12.38
2022-10-10T20:53:52.352Z,11.30
2022-10-10T20:56:11.601Z,11.85
2022-10-10T20:58:28.614Z,11.70
2022-10-10T21:00:45.531Z,12.13
2022-10-10T21:03:02.551Z,12.73
2022-10-10T21:05:19.508Z,9.98
2022-10-10T21:07:37.397Z,11.65
2022-10-10T21:09:54.278Z,9.90
2022-10-10T21:12:11.193Z,12.80
2022-10-10T21:14:28.120Z,12.40
2022-10-10T21:16:45.042Z,11.60
2022-10-10T21:19:05.072Z,13.93
2022-10-10T21:21:22.030Z,11.70
2022-10-10T21:23:38.999Z,11.13
2022-10-10T21:25:55.941Z,12.88
2022-10-10T21:28:12.886Z,14.32
2022-10-10T21:30:29.846Z,18.58
2022-10-10T21:32:46.696Z,9.73
2022-10-10T21:35:03.601Z,17.08
2022-10-10T21:37:20.567Z,10.65
2022-10-10T21:39:37.485Z,15.82
2022-10-10T21:41:54.437Z,23.33
2022-10-10T21:44:11.421Z,12.27
2022-10-10T21:46:29.815Z,12.32
2022-10-10T21:48:49.355Z,11.55
2022-10-10T21:51:06.280Z,9.95
2022-10-10T21:53:23.305Z,8.35
2022-10-10T21:55:40.172Z,19.20
2022-10-10T21:57:57.067Z,11.52
2022-10-10T22:00:13.997Z,12.10
2022-10-10T22:02:30.928Z,10.85
2022-10-10T22:04:47.794Z,9.85
2022-10-10T22:07:04.833Z,11.52
2022-10-10T22:09:21.784Z,12.40
2022-10-10T22:11:38.689Z,10.30
2022-10-10T22:13:55.780Z,12.05
2022-10-10T22:16:12.715Z,12.93
2022-10-10T22:18:29.624Z,12.20
2022-10-10T22:20:46.584Z,12.60
2022-10-10T22:23:03.524Z,17.35
2022-10-10T22:25:20.502Z,17.05
2022-10-10T22:27:37.419Z,19.67
2022-10-10T22:29:54.346Z,20.80
2022-10-10T22:32:11.332Z,13.55
2022-10-10T22:34:28.293Z,17.48
2022-10-10T22:36:45.258Z,18.02
2022-10-10T22:39:02.320Z,14.52
2022-10-10T22:41:19.237Z,16.13
2022-10-10T22:43:36.237Z,13.23
2022-10-10T22:45:53.174Z,12.45
2022-10-10T22:48:10.139Z,16.05
2022-10-10T22:50:26.967Z,20.98
2022-10-10T22:52:43.828Z,11.25
2022-10-10T22:55:00.691Z,14.52
2022-10-10T22:57:17.526Z,16.10
2022-10-10T22:59:34.406Z,13.52
2022-10-10T23:01:51.262Z,14.25
2022-10-10T23:04:08.174Z,18.20
2022-10-10T23:06:25.047Z,15.20
2022-10-10T23:08:41.912Z,15.02
2022-10-10T23:10:58.760Z,12.85
2022-10-10T23:13:15.686Z,11.88
2022-10-10T23:15:32.559Z,14.18
2022-10-10T23:17:49.466Z,14.75
2022-10-10T23:20:06.353Z,16.20
2022-10-10T23:22:23.233Z,14.48
2022-10-10T23:24:40.127Z,14.35
2022-10-10T23:26:57.187Z,17.40
2022-10-10T23:29:14.060Z,13.30
2022-10-10T23:31:30.966Z,15.63
2022-10-10T23:33:47.862Z,18.60
2022-10-10T23:36:05.017Z,23.30
2022-10-10T23:38:22.112Z,35.33
2022-10-10T23:40:38.989Z,47.75
2022-10-10T23:42:55.916Z,41.40
2022-10-10T23:45:12.792Z,38.28
2022-10-10T23:47:29.682Z,42.67
2022-10-10T23:49:46.576Z,45.35
2022-10-10T23:52:03.451Z,42.22
2022-10-10T23:54:20.360Z,39.13
2022-10-10T23:56:37.214Z,30.92
2022-10-10T23:58:54.097Z,27.95
